sensor_id;sensor_type;location;lat;lon;timestamp;pressure;altitude;pressure_sealevel;temperature;humidity
22862;BME280;11598;50.652;6.172;2022-10-26T00:09:51;96302.34;;;12.50;89.14
22862;BME280;11598;50.652;6.172;2022-10-26T00:19:52;96295.22;;;12.52;88.66
22862;BME280;11598;50.652;6.172;2022-10-26T00:29:52;96293.63;;;12.61;87.72
22862;BME280;11598;50.652;6.172;2022-10-26T00:39:52;96282.84;;;12.75;86.03
22862;BME280;11598;50.652;6.172;2022-10-26T00:49:55;96280.41;;;12.93;84.55
22862;BME280;11598;50.652;6.172;2022-10-26T00:59:57;96288.28;;;13.03;83.45
22862;BME280;11598;50.652;6.172;2022-10-26T01:09:59;96284.59;;;13.15;81.78
22862;BME280;11598;50.652;6.172;2022-10-26T01:40:35;96241.19;;;13.14;82.45
22862;BME280;11598;50.652;6.172;2022-10-26T01:50:37;96247.78;;;13.08;82.99
22862;BME280;11598;50.652;6.172;2022-10-26T02:00:44;96248.63;;;13.09;83.24
22862;BME280;11598;50.652;6.172;2022-10-26T02:20:53;96235.53;;;12.89;83.64
22862;BME280;11598;50.652;6.172;2022-10-26T02:30:57;96235.00;;;12.96;82.45
22862;BME280;11598;50.652;6.172;2022-10-26T02:41:00;96227.16;;;12.96;82.89
22862;BME280;11598;50.652;6.172;2022-10-26T02:51:10;96215.38;;;12.92;83.90
22862;BME280;11598;50.652;6.172;2022-10-26T03:01:12;96203.94;;;12.63;85.83
22862;BME280;11598;50.652;6.172;2022-10-26T03:11:13;96206.63;;;12.52;86.39
22862;BME280;11598;50.652;6.172;2022-10-26T03:21:15;96209.69;;;12.67;85.85
22862;BME280;11598;50.652;6.172;2022-10-26T03:31:15;96220.81;;;12.79;85.09
22862;BME280;11598;50.652;6.172;2022-10-26T03:41:15;96227.41;;;12.73;85.80
22862;BME280;11598;50.652;6.172;2022-10-26T03:51:16;96233.09;;;12.47;88.29
22862;BME280;11598;50.652;6.172;2022-10-26T04:01:16;96227.81;;;12.07;91.37
22862;BME280;11598;50.652;6.172;2022-10-26T04:11:16;96222.09;;;11.92;93.08
22862;BME280;11598;50.652;6.172;2022-10-26T04:21:17;96212.84;;;11.99;92.38
22862;BME280;11598;50.652;6.172;2022-10-26T04:31:17;96219.94;;;12.18;90.84
22862;BME280;11598;50.652;6.172;2022-10-26T04:41:18;96219.44;;;12.34;89.06
22862;BME280;11598;50.652;6.172;2022-10-26T04:51:18;96214.50;;;12.31;89.36
22862;BME280;11598;50.652;6.172;2022-10-26T05:01:18;96223.81;;;12.03;91.71
22862;BME280;11598;50.652;6.172;2022-10-26T05:11:19;96211.13;;;11.68;94.61
22862;BME280;11598;50.652;6.172;2022-10-26T05:21:19;96219.41;;;11.40;96.96
22862;BME280;11598;50.652;6.172;2022-10-26T05:31:20;96236.44;;;11.33;98.59
22862;BME280;11598;50.652;6.172;2022-10-26T05:41:20;96252.19;;;11.32;99.80
22862;BME280;11598;50.652;6.172;2022-10-26T05:51:20;96260.56;;;11.35;100.00
22862;BME280;11598;50.652;6.172;2022-10-26T06:11:43;96260.19;;;11.40;100.00
22862;BME280;11598;50.652;6.172;2022-10-26T06:21:54;96264.94;;;11.35;100.00
22862;BME280;11598;50.652;6.172;2022-10-26T06:31:55;96284.41;;;11.19;100.00
22862;BME280;11598;50.652;6.172;2022-10-26T06:41:56;96304.94;;;11.34;100.00
22862;BME280;11598;50.652;6.172;2022-10-26T06:52:00;96309.59;;;11.51;100.00
22862;BME280;11598;50.652;6.172;2022-10-26T07:02:01;96310.13;;;11.66;100.00
22862;BME280;11598;50.652;6.172;2022-10-26T07:12:02;96311.19;;;11.63;100.00
22862;BME280;11598;50.652;6.172;2022-10-26T07:22:02;96299.22;;;11.72;100.00
22862;BME280;11598;50.652;6.172;2022-10-26T07:32:03;96314.19;;;12.12;100.00
22862;BME280;11598;50.652;6.172;2022-10-26T07:42:03;96320.59;;;12.50;100.00
22862;BME280;11598;50.652;6.172;2022-10-26T07:52:04;96325.38;;;13.16;100.00
22862;BME280;11598;50.652;6.172;2022-10-26T08:02:04;96357.34;;;13.59;98.56
22862;BME280;11598;50.652;6.172;2022-10-26T08:12:05;96361.50;;;13.81;96.92
22862;BME280;11598;50.652;6.172;2022-10-26T08:22:05;96394.78;;;13.88;96.06
22862;BME280;11598;50.652;6.172;2022-10-26T08:32:06;96392.16;;;13.98;95.64
22862;BME280;11598;50.652;6.172;2022-10-26T08:42:12;96417.19;;;14.10;94.86
22862;BME280;11598;50.652;6.172;2022-10-26T08:52:16;96432.19;;;14.28;94.19
22862;BME280;11598;50.652;6.172;2022-10-26T09:02:19;96434.66;;;14.49;93.23
22862;BME280;11598;50.652;6.172;2022-10-26T09:12:35;96430.13;;;14.70;92.46
22862;BME280;11598;50.652;6.172;2022-10-26T09:22:51;96451.28;;;14.87;90.19
22862;BME280;11598;50.652;6.172;2022-10-26T09:32:58;96468.19;;;15.02;89.32
22862;BME280;11598;50.652;6.172;2022-10-26T09:53:05;96495.66;;;15.26;88.77
22862;BME280;11598;50.652;6.172;2022-10-26T10:03:21;96507.75;;;15.36;87.81
22862;BME280;11598;50.652;6.172;2022-10-26T10:13:26;96521.06;;;15.53;87.03
22862;BME280;11598;50.652;6.172;2022-10-26T10:23:32;96524.47;;;15.73;86.70
22862;BME280;11598;50.652;6.172;2022-10-26T10:33:36;96542.63;;;15.84;84.95
22862;BME280;11598;50.652;6.172;2022-10-26T10:44:05;96543.75;;;16.27;85.57
22862;BME280;11598;50.652;6.172;2022-10-26T10:54:04;96554.66;;;16.50;83.99
22862;BME280;11598;50.652;6.172;2022-10-26T11:14:34;96573.28;;;16.93;82.49
22862;BME280;11598;50.652;6.172;2022-10-26T11:24:42;96573.97;;;17.13;80.94
22862;BME280;11598;50.652;6.172;2022-10-26T11:45:12;96590.84;;;17.10;79.91
22862;BME280;11598;50.652;6.172;2022-10-26T11:55:14;96598.91;;;17.17;78.80
22862;BME280;11598;50.652;6.172;2022-10-26T12:15:51;96614.28;;;17.11;75.14
22862;BME280;11598;50.652;6.172;2022-10-26T12:36:46;96631.63;;;17.04;75.44
22862;BME280;11598;50.652;6.172;2022-10-26T12:46:46;96647.09;;;17.07;74.45
22862;BME280;11598;50.652;6.172;2022-10-26T12:56:54;96663.03;;;17.14;71.59
22862;BME280;11598;50.652;6.172;2022-10-26T13:07:18;96684.91;;;17.15;71.51
22862;BME280;11598;50.652;6.172;2022-10-26T13:17:30;96685.78;;;17.05;69.89
22862;BME280;11598;50.652;6.172;2022-10-26T13:37:32;96698.19;;;16.85;70.98
22862;BME280;11598;50.652;6.172;2022-10-26T14:08:17;96705.13;;;16.49;71.87
22862;BME280;11598;50.652;6.172;2022-10-26T14:28:28;96719.66;;;16.34;72.54
22862;BME280;11598;50.652;6.172;2022-10-26T14:38:35;96733.59;;;16.34;72.92
22862;BME280;11598;50.652;6.172;2022-10-26T14:48:41;96736.00;;;16.27;73.19
22862;BME280;11598;50.652;6.172;2022-10-26T14:58:49;96754.75;;;16.13;73.91
22862;BME280;11598;50.652;6.172;2022-10-26T15:08:53;96760.88;;;16.04;74.98
22862;BME280;11598;50.652;6.172;2022-10-26T15:18:57;96766.97;;;15.85;75.72
22862;BME280;11598;50.652;6.172;2022-10-26T15:28:58;96783.88;;;15.61;77.36
22862;BME280;11598;50.652;6.172;2022-10-26T15:38:59;96791.44;;;15.35;78.52
22862;BME280;11598;50.652;6.172;2022-10-26T15:49:01;96799.78;;;15.10;79.66
22862;BME280;11598;50.652;6.172;2022-10-26T15:59:04;96807.47;;;14.92;80.36
22862;BME280;11598;50.652;6.172;2022-10-26T16:09:06;96819.91;;;14.69;81.45
22862;BME280;11598;50.652;6.172;2022-10-26T16:19:09;96837.25;;;14.49;82.00
22862;BME280;11598;50.652;6.172;2022-10-26T16:29:10;96849.63;;;14.26;83.29
22862;BME280;11598;50.652;6.172;2022-10-26T16:39:10;96874.06;;;14.04;83.80
22862;BME280;11598;50.652;6.172;2022-10-26T16:49:11;96881.44;;;13.99;83.92
22862;BME280;11598;50.652;6.172;2022-10-26T16:59:12;96890.47;;;13.94;83.47
22862;BME280;11598;50.652;6.172;2022-10-26T17:09:12;96914.28;;;13.80;83.90
22862;BME280;11598;50.652;6.172;2022-10-26T17:19:12;96926.41;;;13.70;84.64
22862;BME280;11598;50.652;6.172;2022-10-26T17:29:13;96943.53;;;13.63;85.20
22862;BME280;11598;50.652;6.172;2022-10-26T17:39:13;96951.25;;;13.53;86.07
22862;BME280;11598;50.652;6.172;2022-10-26T17:49:15;96969.06;;;13.48;86.82
22862;BME280;11598;50.652;6.172;2022-10-26T17:59:15;96984.13;;;13.44;87.61
22862;BME280;11598;50.652;6.172;2022-10-26T18:09:18;97004.88;;;13.46;88.38
22862;BME280;11598;50.652;6.172;2022-10-26T18:19:18;97010.09;;;13.35;89.19
22862;BME280;11598;50.652;6.172;2022-10-26T18:29:19;97017.56;;;13.28;90.07
22862;BME280;11598;50.652;6.172;2022-10-26T18:39:19;97033.66;;;13.22;90.46
22862;BME280;11598;50.652;6.172;2022-10-26T18:49:19;97046.41;;;13.02;91.42
22862;BME280;11598;50.652;6.172;2022-10-26T18:59:20;97044.72;;;12.90;92.33
22862;BME280;11598;50.652;6.172;2022-10-26T19:09:20;97059.56;;;12.89;92.85
22862;BME280;11598;50.652;6.172;2022-10-26T19:19:20;97064.50;;;12.81;93.40
22862;BME280;11598;50.652;6.172;2022-10-26T19:29:21;97074.56;;;12.75;94.21
22862;BME280;11598;50.652;6.172;2022-10-26T19:39:21;97076.31;;;12.74;95.16
22862;BME280;11598;50.652;6.172;2022-10-26T19:49:22;97086.34;;;12.67;95.88
22862;BME280;11598;50.652;6.172;2022-10-26T19:59:22;97096.09;;;12.65;96.88
22862;BME280;11598;50.652;6.172;2022-10-26T20:09:23;97094.31;;;12.66;97.76
22862;BME280;11598;50.652;6.172;2022-10-26T20:19:23;97107.34;;;12.66;98.52
22862;BME280;11598;50.652;6.172;2022-10-26T20:29:23;97114.66;;;12.61;99.23
22862;BME280;11598;50.652;6.172;2022-10-26T20:39:24;97120.81;;;12.60;99.53
22862;BME280;11598;50.652;6.172;2022-10-26T20:49:24;97131.47;;;12.57;100.00
22862;BME280;11598;50.652;6.172;2022-10-26T20:59:31;97141.16;;;12.55;100.00
22862;BME280;11598;50.652;6.172;2022-10-26T21:09:34;97138.78;;;12.52;100.00
22862;BME280;11598;50.652;6.172;2022-10-26T21:19:34;97135.69;;;12.46;100.00
22862;BME280;11598;50.652;6.172;2022-10-26T21:29:35;97142.88;;;12.43;100.00
22862;BME280;11598;50.652;6.172;2022-10-26T21:39:35;97146.53;;;12.40;100.00
22862;BME280;11598;50.652;6.172;2022-10-26T21:49:36;97144.16;;;12.37;100.00
22862;BME280;11598;50.652;6.172;2022-10-26T21:59:36;97143.91;;;12.40;100.00
22862;BME280;11598;50.652;6.172;2022-10-26T22:09:37;97144.75;;;12.41;100.00
22862;BME280;11598;50.652;6.172;2022-10-26T22:19:37;97141.91;;;12.44;100.00
22862;BME280;11598;50.652;6.172;2022-10-26T22:29:37;97147.47;;;12.39;100.00
22862;BME280;11598;50.652;6.172;2022-10-26T22:39:38;97148.41;;;12.38;100.00
22862;BME280;11598;50.652;6.172;2022-10-26T22:49:38;97152.88;;;12.36;100.00
22862;BME280;11598;50.652;6.172;2022-10-26T22:59:38;97149.44;;;12.36;100.00
22862;BME280;11598;50.652;6.172;2022-10-26T23:09:39;97146.34;;;12.31;100.00
22862;BME280;11598;50.652;6.172;2022-10-26T23:19:39;97148.22;;;12.29;100.00
22862;BME280;11598;50.652;6.172;2022-10-26T23:29:39;97151.78;;;12.27;100.00
22862;BME280;11598;50.652;6.172;2022-10-26T23:39:40;97156.03;;;12.29;100.00
22862;BME280;11598;50.652;6.172;2022-10-26T23:49:40;97155.94;;;12.30;100.00
22862;BME280;11598;50.652;6.172;2022-10-26T23:59:40;97154.75;;;12.34;100.00
